• Join FlightAware (Why Join?)
  • Login
  • US Flag 
08:27AM EDT


 

Airport Tracker/Info


-or-


 

Live Flight TrackerFlight Track Log ✈ N2145X ✈ 06-Apr-2014 ✈ KISP - KMMK

Flight Track Log - Related Links

Times and Time Zones

All times are in EDT time to prevent confusion due to time zone crossing. See the N2145X flight status page for this flight to view local times or setup timezone preferences in your user account.

Time Position Orientation Groundspeed Altitude Reporting Facility
EDT Latitude Longitude Course Direction KTS MPH feet Rate Location/Type
02:03PM 40.8333 -73.1500 37° Northeast 126 145 2,100  Level New York TRACON
02:04PM 40.8667 -73.1167 37° Northeast 143 165 2,500 180 Climbing New York TRACON
02:05PM 40.9000 -73.1000 21° North 149 171 2,500  Level New York TRACON
02:06PM 40.9333 -73.0667 37° Northeast 151 174 2,500 120 Level New York TRACON
02:07PM 40.9667 -73.0333 37° Northeast 148 170 2,800 240 Climbing New York TRACON
02:08PM 41.0167 -73.0167 14° North 150 173 3,100 120 Climbing New York TRACON
02:08PM 41.0500 -73.0000 21° North 144 166 3,100  Level New York TRACON
02:10PM 41.0833 -72.9833 21° North 147 169 3,100  Level New York TRACON
02:10PM 41.1167 -72.9667 21° North 145 167 3,100  Level New York TRACON
02:11PM 41.1667 -72.9500 14° North 146 168 3,100  Level New York TRACON
02:12PM 41.2000 -72.9333 21° North 146 168 3,100 -60 Level New York TRACON
02:13PM 41.2333 -72.9333 360° North 134 154 3,000 -180 Descending New York TRACON
02:14PM 41.2572 -72.9217 20° North 138 159 2,900  Descending Boston Center
02:15PM 41.2911 -72.9072 18° North 131 151 3,000  Climbing Boston Center
02:16PM 41.3242 -72.8925 18° North 127 146 3,000  Level Boston Center
02:17PM 41.3606 -72.8800 14° North 126 145 3,000 -60 Level Boston Center
02:18PM 41.3939 -72.8664 17° North 125 144 2,900 -300 Descending Boston Center
02:19PM 41.4264 -72.8522 18° North 125 144 2,500 -600 Descending Boston Center
02:20PM 41.4600 -72.8386 17° North 121 139 1,800 -600 Descending Boston Center
02:21PM 41.4922 -72.8300 11° North 121 139 1,300 -420 Descending Boston Center
02:22PM 41.5233 -72.8172 17° North 119 137 1,000 -240 Descending Boston Center
02:23PM 41.5436 -72.8381 322° Northwest 96 110 900 -240 Descending Boston Center
02:24PM 41.5231 -72.8358 175° South 102 117 600 -300 Descending Boston Center
02:26PM 41.5087 -72.8295 185° South  Level Estimated
02:33PM 41.5087 -72.8295 17° North  Level Estimated